sensor_id;sensor_type;location;lat;lon;timestamp;pressure;altitude;pressure_sealevel;temperature;humidity
76726;BME280;65651;53.154;17.916;2023-06-10T19:03:27;101466.07;;;18.77;37.54
76726;BME280;65651;53.154;17.916;2023-06-10T19:05:56;101467.20;;;18.69;37.71
76726;BME280;65651;53.154;17.916;2023-06-10T19:08:27;101471.25;;;18.63;37.90
76726;BME280;65651;53.154;17.916;2023-06-10T19:10:58;101477.55;;;18.58;38.17
76726;BME280;65651;53.154;17.916;2023-06-10T19:13:25;101479.38;;;18.53;38.46
76726;BME280;65651;53.154;17.916;2023-06-10T19:15:54;101484.62;;;18.47;38.60
76726;BME280;65651;53.154;17.916;2023-06-10T19:18:22;101486.14;;;18.41;38.74
76726;BME280;65651;53.154;17.916;2023-06-10T19:20:52;101491.20;;;18.35;38.94
76726;BME280;65651;53.154;17.916;2023-06-10T19:23:20;101495.86;;;18.30;39.26
76726;BME280;65651;53.154;17.916;2023-06-10T19:25:47;101493.39;;;18.24;39.42
76726;BME280;65651;53.154;17.916;2023-06-10T19:28:16;101496.63;;;18.19;39.53
76726;BME280;65651;53.154;17.916;2023-06-10T19:30:43;101501.00;;;18.15;39.83
76726;BME280;65651;53.154;17.916;2023-06-10T19:33:11;101496.45;;;18.10;40.09
76726;BME280;65651;53.154;17.916;2023-06-10T19:35:38;101500.52;;;18.05;40.12
76726;BME280;65651;53.154;17.916;2023-06-10T19:38:08;101505.40;;;18.00;40.41
76726;BME280;65651;53.154;17.916;2023-06-10T19:40:35;101503.69;;;17.94;40.52
76726;BME280;65651;53.154;17.916;2023-06-10T19:43:03;101503.77;;;17.87;40.67
76726;BME280;65651;53.154;17.916;2023-06-10T19:45:30;101504.90;;;17.80;41.00
76726;BME280;65651;53.154;17.916;2023-06-10T19:47:57;101502.77;;;17.73;41.29
76726;BME280;65651;53.154;17.916;2023-06-10T19:50:27;101502.64;;;17.66;41.39
76726;BME280;65651;53.154;17.916;2023-06-10T19:52:54;101505.42;;;17.61;41.83
76726;BME280;65651;53.154;17.916;2023-06-10T19:55:21;101505.73;;;17.55;41.83
76726;BME280;65651;53.154;17.916;2023-06-10T19:57:49;101509.66;;;17.49;41.95
76726;BME280;65651;53.154;17.916;2023-06-10T20:00:22;101506.43;;;17.41;42.27
76726;BME280;65651;53.154;17.916;2023-06-10T20:02:49;101510.17;;;17.36;42.40
76726;BME280;65651;53.154;17.916;2023-06-10T20:05:17;101515.57;;;17.30;42.57
76726;BME280;65651;53.154;17.916;2023-06-10T20:07:46;101515.12;;;17.24;42.87
76726;BME280;65651;53.154;17.916;2023-06-10T20:10:16;101515.10;;;17.19;43.03
76726;BME280;65651;53.154;17.916;2023-06-10T20:12:45;101519.11;;;17.14;43.19
76726;BME280;65651;53.154;17.916;2023-06-10T20:15:12;101519.60;;;17.07;43.44
76726;BME280;65651;53.154;17.916;2023-06-10T20:17:41;101525.07;;;17.03;43.77
76726;BME280;65651;53.154;17.916;2023-06-10T20:20:09;101526.41;;;16.97;43.77
76726;BME280;65651;53.154;17.916;2023-06-10T20:22:37;101528.22;;;16.91;43.86
76726;BME280;65651;53.154;17.916;2023-06-10T20:25:05;101527.27;;;16.85;43.98
76726;BME280;65651;53.154;17.916;2023-06-10T20:27:33;101530.81;;;16.81;44.34
76726;BME280;65651;53.154;17.916;2023-06-10T20:30:00;101534.80;;;16.76;44.43
76726;BME280;65651;53.154;17.916;2023-06-10T20:32:27;101534.75;;;16.71;44.65
76726;BME280;65651;53.154;17.916;2023-06-10T20:34:56;101537.58;;;16.67;44.76
76726;BME280;65651;53.154;17.916;2023-06-10T20:37:23;101532.84;;;16.62;44.98
76726;BME280;65651;53.154;17.916;2023-06-10T20:39:51;101529.89;;;16.55;45.00
76726;BME280;65651;53.154;17.916;2023-06-10T20:42:21;101539.92;;;16.51;45.22
76726;BME280;65651;53.154;17.916;2023-06-10T20:44:49;101539.66;;;16.47;45.44
76726;BME280;65651;53.154;17.916;2023-06-10T20:47:17;101538.85;;;16.43;45.60
76726;BME280;65651;53.154;17.916;2023-06-10T20:49:44;101540.65;;;16.39;45.73
76726;BME280;65651;53.154;17.916;2023-06-10T20:52:14;101539.23;;;16.36;45.86
76726;BME280;65651;53.154;17.916;2023-06-10T20:54:42;101540.48;;;16.32;46.05
76726;BME280;65651;53.154;17.916;2023-06-10T20:57:09;101538.77;;;16.28;46.09
76726;BME280;65651;53.154;17.916;2023-06-10T20:59:37;101540.07;;;16.23;46.16
76726;BME280;65651;53.154;17.916;2023-06-10T21:02:04;101539.48;;;16.18;46.31
76726;BME280;65651;53.154;17.916;2023-06-10T21:04:34;101546.21;;;16.14;46.37
76726;BME280;65651;53.154;17.916;2023-06-10T21:07:01;101548.27;;;16.10;46.57
76726;BME280;65651;53.154;17.916;2023-06-10T21:09:29;101546.17;;;16.07;46.79
76726;BME280;65651;53.154;17.916;2023-06-10T21:11:56;101547.55;;;16.05;46.75
76726;BME280;65651;53.154;17.916;2023-06-10T21:14:24;101548.06;;;16.01;46.76
76726;BME280;65651;53.154;17.916;2023-06-10T21:16:54;101549.88;;;15.98;46.81
76726;BME280;65651;53.154;17.916;2023-06-10T21:19:21;101549.26;;;15.95;46.99
76726;BME280;65651;53.154;17.916;2023-06-10T21:21:49;101553.39;;;15.92;47.05
76726;BME280;65651;53.154;17.916;2023-06-10T21:24:17;101557.19;;;15.89;47.08
76726;BME280;65651;53.154;17.916;2023-06-10T21:26:44;101560.23;;;15.85;47.23
76726;BME280;65651;53.154;17.916;2023-06-10T21:29:11;101563.05;;;15.82;47.12
76726;BME280;65651;53.154;17.916;2023-06-10T21:31:38;101562.19;;;15.80;47.30
76726;BME280;65651;53.154;17.916;2023-06-10T21:34:08;101561.77;;;15.77;47.58
76726;BME280;65651;53.154;17.916;2023-06-10T21:36:35;101566.52;;;15.75;47.48
76726;BME280;65651;53.154;17.916;2023-06-10T21:39:03;101569.15;;;15.72;47.61
76726;BME280;65651;53.154;17.916;2023-06-10T21:41:31;101566.98;;;15.69;47.62
76726;BME280;65651;53.154;17.916;2023-06-10T21:43:58;101568.33;;;15.66;47.87
76726;BME280;65651;53.154;17.916;2023-06-10T21:46:25;101566.25;;;15.64;47.79
76726;BME280;65651;53.154;17.916;2023-06-10T21:48:53;101566.03;;;15.60;47.81
76726;BME280;65651;53.154;17.916;2023-06-10T21:51:20;101567.38;;;15.57;48.00
76726;BME280;65651;53.154;17.916;2023-06-10T21:53:47;101570.59;;;15.55;48.06
76726;BME280;65651;53.154;17.916;2023-06-10T21:56:14;101567.48;;;15.51;48.29
76726;BME280;65651;53.154;17.916;2023-06-10T21:58:42;101569.36;;;15.49;48.15
76726;BME280;65651;53.154;17.916;2023-06-10T22:01:14;101567.51;;;15.45;48.24
76726;BME280;65651;53.154;17.916;2023-06-10T22:03:42;101563.30;;;15.43;48.24
76726;BME280;65651;53.154;17.916;2023-06-10T22:06:10;101565.78;;;15.40;48.39
76726;BME280;65651;53.154;17.916;2023-06-10T22:08:40;101568.00;;;15.37;48.37
76726;BME280;65651;53.154;17.916;2023-06-10T22:11:08;101568.19;;;15.36;48.35
76726;BME280;65651;53.154;17.916;2023-06-10T22:13:35;101569.37;;;15.32;48.39
76726;BME280;65651;53.154;17.916;2023-06-10T22:16:03;101571.77;;;15.28;48.40
76726;BME280;65651;53.154;17.916;2023-06-10T22:18:32;101573.21;;;15.26;48.56
76726;BME280;65651;53.154;17.916;2023-06-10T22:21:00;101573.14;;;15.24;48.72
76726;BME280;65651;53.154;17.916;2023-06-10T22:23:28;101574.41;;;15.22;48.62
76726;BME280;65651;53.154;17.916;2023-06-10T22:25:56;101572.48;;;15.19;48.63
76726;BME280;65651;53.154;17.916;2023-06-10T22:28:23;101573.28;;;15.15;48.75
76726;BME280;65651;53.154;17.916;2023-06-10T22:30:50;101576.13;;;15.12;48.82
76726;BME280;65651;53.154;17.916;2023-06-10T22:33:18;101572.86;;;15.08;48.90
76726;BME280;65651;53.154;17.916;2023-06-10T22:35:45;101570.83;;;15.05;48.94
76726;BME280;65651;53.154;17.916;2023-06-10T22:38:12;101571.29;;;15.02;49.00
76726;BME280;65651;53.154;17.916;2023-06-10T22:40:40;101571.41;;;14.99;48.92
76726;BME280;65651;53.154;17.916;2023-06-10T22:43:07;101571.95;;;14.94;49.02
76726;BME280;65651;53.154;17.916;2023-06-10T22:45:34;101572.84;;;14.90;49.11
76726;BME280;65651;53.154;17.916;2023-06-10T22:48:02;101565.95;;;14.87;49.26
76726;BME280;65651;53.154;17.916;2023-06-10T22:50:29;101569.94;;;14.83;49.30
76726;BME280;65651;53.154;17.916;2023-06-10T22:52:57;101567.66;;;14.78;49.26
76726;BME280;65651;53.154;17.916;2023-06-10T22:55:24;101566.98;;;14.74;49.36
76726;BME280;65651;53.154;17.916;2023-06-10T22:57:52;101567.58;;;14.70;49.26
76726;BME280;65651;53.154;17.916;2023-06-10T23:00:19;101561.23;;;14.67;49.44
76726;BME280;65651;53.154;17.916;2023-06-10T23:02:47;101563.25;;;14.63;49.39
76726;BME280;65651;53.154;17.916;2023-06-10T23:05:14;101563.55;;;14.60;49.37
76726;BME280;65651;53.154;17.916;2023-06-10T23:07:41;101568.46;;;14.56;49.54
76726;BME280;65651;53.154;17.916;2023-06-10T23:10:09;101567.73;;;14.52;49.59
76726;BME280;65651;53.154;17.916;2023-06-10T23:12:39;101566.09;;;14.46;49.67
76726;BME280;65651;53.154;17.916;2023-06-10T23:15:07;101571.27;;;14.41;49.64
76726;BME280;65651;53.154;17.916;2023-06-10T23:17:34;101565.67;;;14.37;49.72
76726;BME280;65651;53.154;17.916;2023-06-10T23:20:02;101567.91;;;14.33;49.72
76726;BME280;65651;53.154;17.916;2023-06-10T23:22:30;101570.42;;;14.29;49.73
76726;BME280;65651;53.154;17.916;2023-06-10T23:24:58;101570.95;;;14.26;49.94
76726;BME280;65651;53.154;17.916;2023-06-10T23:27:27;101572.12;;;14.22;49.76
76726;BME280;65651;53.154;17.916;2023-06-10T23:29:54;101571.88;;;14.20;49.77
76726;BME280;65651;53.154;17.916;2023-06-10T23:32:22;101570.75;;;14.14;49.87
76726;BME280;65651;53.154;17.916;2023-06-10T23:34:49;101570.20;;;14.11;49.92
76726;BME280;65651;53.154;17.916;2023-06-10T23:37:17;101575.20;;;14.07;49.89
76726;BME280;65651;53.154;17.916;2023-06-10T23:39:48;101574.89;;;14.05;49.89
76726;BME280;65651;53.154;17.916;2023-06-10T23:42:16;101574.82;;;14.02;49.76
76726;BME280;65651;53.154;17.916;2023-06-10T23:44:43;101574.42;;;13.99;49.91
76726;BME280;65651;53.154;17.916;2023-06-10T23:47:11;101576.31;;;13.96;49.87
76726;BME280;65651;53.154;17.916;2023-06-10T23:49:38;101575.09;;;13.93;50.01
76726;BME280;65651;53.154;17.916;2023-06-10T23:52:05;101572.86;;;13.90;49.88
76726;BME280;65651;53.154;17.916;2023-06-10T23:54:33;101575.32;;;13.89;49.81
76726;BME280;65651;53.154;17.916;2023-06-10T23:57:03;101573.10;;;13.88;49.82
76726;BME280;65651;53.154;17.916;2023-06-10T23:59:31;101579.25;;;13.85;49.81
